createdAt,value
2024-01-06T00:05:00.736Z,62.40
2024-01-06T00:10:04.906Z,63.70
2024-01-06T00:15:07.722Z,69.70
2024-01-06T00:20:10.252Z,50.30
2024-01-06T00:25:12.967Z,59.60
2024-01-06T00:30:15.124Z,60.60
2024-01-06T00:35:17.034Z,65.60
2024-01-06T00:40:20.208Z,65.20
2024-01-06T00:45:23.828Z,64.60
2024-01-06T00:50:25.901Z,62.60
2024-01-06T00:55:28.067Z,75.60
2024-01-06T01:00:29.996Z,71.70
2024-01-06T01:05:31.973Z,80.80
2024-01-06T01:10:34.067Z,66.90
2024-01-06T01:15:36.208Z,56.90
2024-01-06T01:20:38.100Z,70.90
2024-01-06T01:25:40.205Z,72.60
2024-01-06T01:30:42.236Z,66.10
2024-01-06T01:35:44.175Z,64.30
2024-01-06T01:40:46.176Z,69.00
2024-01-06T01:45:55.410Z,61.70
2024-01-06T01:50:57.824Z,74.50
2024-01-06T01:56:00.536Z,63.30
2024-01-06T02:01:03.146Z,69.60
2024-01-06T02:06:05.303Z,70.40
2024-01-06T02:11:07.411Z,72.70
2024-01-06T02:16:09.234Z,68.00
2024-01-06T02:21:11.918Z,64.30
2024-01-06T02:26:15.995Z,65.60
2024-01-06T02:31:18.079Z,67.90
2024-01-06T02:36:20.194Z,76.50
2024-01-06T02:41:22.191Z,73.80
2024-01-06T02:46:24.180Z,79.40
2024-01-06T02:51:26.311Z,78.50
2024-01-06T02:56:28.391Z,81.90
2024-01-06T03:01:30.287Z,74.90
2024-01-06T03:06:32.420Z,80.00
2024-01-06T03:11:34.413Z,86.80
2024-01-06T03:16:36.518Z,88.60
2024-01-06T03:21:38.456Z,89.40
2024-01-06T03:26:40.604Z,63.90
2024-01-06T03:31:47.002Z,74.80
2024-01-06T03:36:49.110Z,75.30
2024-01-06T03:41:51.378Z,85.30
2024-01-06T03:46:53.484Z,79.80
2024-01-06T03:51:55.572Z,58.70
2024-01-06T03:56:57.747Z,78.50
2024-01-06T04:01:59.852Z,71.30
2024-01-06T04:07:02.685Z,76.10
2024-01-06T04:12:04.741Z,81.20
2024-01-06T04:17:06.663Z,81.00
2024-01-06T04:22:08.667Z,73.00
2024-01-06T04:27:11.274Z,72.10
2024-01-06T04:32:13.328Z,94.40
2024-01-06T04:37:16.065Z,94.30
2024-01-06T04:42:18.108Z,89.80
2024-01-06T04:47:20.494Z,91.60
2024-01-06T04:52:22.454Z,96.50
2024-01-06T04:57:24.686Z,95.40
2024-01-06T05:02:27.525Z,87.60
2024-01-06T05:07:29.391Z,75.60
2024-01-06T05:12:31.428Z,106.40
2024-01-06T05:17:33.552Z,89.70
2024-01-06T05:22:35.733Z,81.30
2024-01-06T05:27:37.780Z,84.60
2024-01-06T05:32:39.884Z,74.40
2024-01-06T05:37:41.909Z,87.90
2024-01-06T05:42:43.973Z,78.30
2024-01-06T05:47:46.097Z,82.10
2024-01-06T05:52:49.741Z,85.40
2024-01-06T05:57:51.841Z,89.50
2024-01-06T06:02:54.057Z,91.50
2024-01-06T06:07:56.088Z,71.30
2024-01-06T06:12:58.211Z,88.20
2024-01-06T06:18:02.901Z,67.50
2024-01-06T06:23:04.951Z,73.00
2024-01-06T06:28:07.698Z,73.20
2024-01-06T06:33:09.962Z,86.40
2024-01-06T06:43:16.358Z,86.80
2024-01-06T06:48:19.693Z,80.20
2024-01-06T06:53:22.101Z,84.50
2024-01-06T06:58:23.957Z,70.90
2024-01-06T07:03:28.076Z,98.80
2024-01-06T07:08:30.099Z,56.90
2024-01-06T07:13:32.162Z,61.10
2024-01-06T07:18:34.411Z,75.40
2024-01-06T07:23:36.556Z,95.70
2024-01-06T07:28:38.783Z,77.20
2024-01-06T07:33:41.257Z,88.80
2024-01-06T07:38:43.669Z,85.90
2024-01-06T07:43:45.624Z,66.00
2024-01-06T07:48:47.615Z,96.30
2024-01-06T07:53:49.702Z,92.70
2024-01-06T07:58:51.682Z,144.10
2024-01-06T08:03:53.655Z,84.10
2024-01-06T08:08:56.207Z,78.00
2024-01-06T08:13:58.282Z,101.00
2024-01-06T08:19:01.158Z,97.70
2024-01-06T08:24:03.621Z,97.50
2024-01-06T08:34:09.372Z,91.10
2024-01-06T08:39:18.315Z,98.80
2024-01-06T08:44:20.206Z,87.70
2024-01-06T08:49:22.176Z,91.20
2024-01-06T08:54:24.279Z,96.80
2024-01-06T08:59:26.391Z,97.80
2024-01-06T09:04:28.579Z,101.80
2024-01-06T09:09:31.528Z,94.90
2024-01-06T09:14:33.688Z,101.80
2024-01-06T09:19:36.166Z,106.60
2024-01-06T09:29:39.944Z,96.60
2024-01-06T09:34:42.171Z,106.40
2024-01-06T09:39:44.457Z,110.70
2024-01-06T09:44:46.440Z,94.80
2024-01-06T09:49:50.657Z,86.20
2024-01-06T09:54:55.099Z,95.60
2024-01-06T09:59:58.376Z,100.70
2024-01-06T10:05:00.506Z,105.30
2024-01-06T10:10:02.814Z,91.70
2024-01-06T10:20:12.204Z,109.00
2024-01-06T10:25:15.008Z,99.20
2024-01-06T10:30:19.550Z,84.80
2024-01-06T10:35:21.737Z,87.10
2024-01-06T10:40:23.822Z,101.80
2024-01-06T10:45:26.505Z,103.00
2024-01-06T10:50:29.990Z,90.50
2024-01-06T10:55:33.046Z,98.40
2024-01-06T11:00:35.044Z,100.60
2024-01-06T11:05:38.254Z,111.10
2024-01-06T11:10:41.564Z,84.90
2024-01-06T11:15:45.656Z,83.00
2024-01-06T11:21:13.940Z,100.80
2024-01-06T11:26:16.344Z,104.80
2024-01-06T11:31:19.883Z,100.20
2024-01-06T11:36:21.968Z,86.00
2024-01-06T11:41:48.733Z,100.60
2024-01-06T11:51:54.184Z,102.80
2024-01-06T11:56:57.312Z,90.70
2024-01-06T12:01:59.606Z,104.20
2024-01-06T12:12:16.269Z,91.60
2024-01-06T12:17:18.377Z,85.40
2024-01-06T12:22:20.533Z,79.80
2024-01-06T12:27:23.042Z,80.30
2024-01-06T12:32:26.625Z,93.40
2024-01-06T12:37:29.002Z,97.90
2024-01-06T12:42:31.112Z,106.60
2024-01-06T12:47:34.129Z,97.60
2024-01-06T12:52:36.427Z,100.40
2024-01-06T13:02:40.572Z,111.30
2024-01-06T13:07:42.582Z,105.20
2024-01-06T13:12:44.790Z,82.90
2024-01-06T13:17:47.890Z,105.50
2024-01-06T13:22:49.980Z,96.90
2024-01-06T13:27:53.120Z,82.80
2024-01-06T13:32:55.917Z,73.20
2024-01-06T13:37:58.279Z,81.40
2024-01-06T13:43:00.373Z,64.10
2024-01-06T13:48:04.855Z,72.50
2024-01-06T13:53:08.847Z,72.00
2024-01-06T13:58:10.833Z,56.70
2024-01-06T14:03:13.305Z,63.00
2024-01-06T14:13:18.063Z,59.20
2024-01-06T14:18:20.199Z,50.70
2024-01-06T14:23:22.754Z,50.00
2024-01-06T14:28:25.009Z,59.60
2024-01-06T14:33:28.663Z,57.20
2024-01-06T14:38:30.658Z,60.60
2024-01-06T14:43:32.911Z,51.30
2024-01-06T14:48:35.271Z,44.00
2024-01-06T14:53:37.625Z,55.10
2024-01-06T14:58:39.571Z,56.60
2024-01-06T15:03:41.747Z,46.20
2024-01-06T15:08:43.981Z,49.00
2024-01-06T15:13:46.809Z,48.70
2024-01-06T15:18:48.856Z,55.40
2024-01-06T15:23:50.968Z,62.40
2024-01-06T15:28:53.009Z,53.80
2024-01-06T15:33:56.787Z,52.80
2024-01-06T15:38:58.809Z,57.50
2024-01-06T15:44:00.646Z,68.00
2024-01-06T15:49:04.175Z,58.20
2024-01-06T15:54:06.243Z,58.40
2024-01-06T15:59:08.935Z,62.10
2024-01-06T16:04:11.179Z,48.50
2024-01-06T16:09:13.501Z,47.10
2024-01-06T16:14:15.518Z,52.50
2024-01-06T16:19:17.518Z,40.90
2024-01-06T16:24:20.020Z,41.00
2024-01-06T16:29:22.340Z,46.60
2024-01-06T16:34:24.425Z,51.60
2024-01-06T16:39:28.689Z,52.00
2024-01-06T16:44:32.589Z,53.90
2024-01-06T16:49:36.264Z,48.10
2024-01-06T16:54:38.909Z,45.00
2024-01-06T16:59:43.172Z,38.60
2024-01-06T17:04:45.310Z,44.50
2024-01-06T17:09:47.796Z,41.70
2024-01-06T17:14:50.176Z,47.70
2024-01-06T17:19:55.639Z,55.30
2024-01-06T17:24:58.238Z,38.60
2024-01-06T17:30:00.420Z,45.80
2024-01-06T17:35:04.380Z,42.00
2024-01-06T17:40:08.216Z,37.70
2024-01-06T17:45:11.943Z,31.50
2024-01-06T17:50:14.229Z,34.20
2024-01-06T17:55:17.350Z,29.50
2024-01-06T18:05:24.010Z,34.40
2024-01-06T18:10:26.162Z,39.10
2024-01-06T18:15:31.637Z,37.90
2024-01-06T18:20:35.632Z,25.50
2024-01-06T18:25:37.903Z,36.10
2024-01-06T18:30:39.960Z,44.50
2024-01-06T18:35:42.040Z,38.10
2024-01-06T18:40:44.107Z,46.60
2024-01-06T18:45:46.996Z,45.00
2024-01-06T18:50:49.415Z,43.00
2024-01-06T18:55:51.845Z,47.20
2024-01-06T19:00:55.708Z,36.20
2024-01-06T19:05:58.178Z,50.30
2024-01-06T19:11:01.707Z,46.90
2024-01-06T19:16:03.994Z,49.40
2024-01-06T19:21:11.381Z,41.40
2024-01-06T19:26:13.876Z,37.10
2024-01-06T19:31:17.797Z,34.20
2024-01-06T19:36:19.967Z,34.10
2024-01-06T19:41:22.291Z,31.00
2024-01-06T19:46:25.035Z,32.10
2024-01-06T19:51:32.654Z,25.40
2024-01-06T19:56:35.108Z,25.70
2024-01-06T20:01:37.631Z,34.80
2024-01-06T20:06:39.937Z,31.10
2024-01-06T20:11:42.713Z,25.10
2024-01-06T20:16:46.392Z,22.80
2024-01-06T20:21:49.040Z,34.30
2024-01-06T20:26:53.544Z,25.70
2024-01-06T20:31:58.125Z,29.70
2024-01-06T20:37:00.657Z,37.40
2024-01-06T20:42:07.325Z,27.80
2024-01-06T20:47:10.031Z,40.00
2024-01-06T20:52:12.127Z,26.40
2024-01-06T20:57:14.886Z,26.30
2024-01-06T21:02:18.871Z,29.10
2024-01-06T21:07:21.152Z,30.50
2024-01-06T21:12:24.003Z,28.40
2024-01-06T21:17:27.165Z,25.40
2024-01-06T21:22:30.395Z,24.10
2024-01-06T21:32:39.188Z,25.90
2024-01-06T21:37:41.833Z,27.90
2024-01-06T21:42:44.805Z,30.30
2024-01-06T21:47:47.112Z,21.70
2024-01-06T21:52:49.486Z,26.90
2024-01-06T21:57:51.360Z,24.20
2024-01-06T22:02:53.659Z,20.40
2024-01-06T22:08:00.697Z,26.50
2024-01-06T22:13:03.429Z,24.70
2024-01-06T22:18:06.163Z,27.80
2024-01-06T22:23:08.379Z,26.60
2024-01-06T22:28:11.463Z,32.80
2024-01-06T22:38:18.954Z,32.00
2024-01-06T22:43:25.403Z,34.60
2024-01-06T22:48:27.526Z,31.50
2024-01-06T22:53:29.710Z,26.80
2024-01-06T22:58:34.247Z,28.70
2024-01-06T23:03:36.520Z,36.60
2024-01-06T23:08:38.676Z,25.90
2024-01-06T23:13:41.561Z,28.30
2024-01-06T23:18:43.755Z,28.50
2024-01-06T23:23:46.955Z,29.50
2024-01-06T23:28:48.873Z,22.50
2024-01-06T23:33:50.922Z,25.70
2024-01-06T23:38:53.406Z,29.80
2024-01-06T23:43:55.434Z,24.20
2024-01-06T23:48:57.849Z,27.80
2024-01-06T23:53:59.902Z,27.20
2024-01-06T23:59:02.728Z,31.40
